Time;durP1;ratioP1;P1;durP2;ratioP2;P2;SDS_P1;SDS_P2;PMS_P1;PMS_P2;Temp;Humidity;BMP_temperature;BMP_pressure;BME280_temperature;BME280_humidity;BME280_pressure;Samples;Min_cycle;Max_cycle;Signal;HPM_P1;HPM_P2
2021/05/30 00:00:17;;;;;;;3.65;1.35;;;14.50;63.90;;;;;;5036967;28;20071;-87
2021/05/30 00:02:43;;;;;;;3.30;1.45;;;14.50;64.20;;;;;;5036583;28;20068;-80
2021/05/30 00:05:10;;;;;;;2.08;1.20;;;14.40;63.10;;;;;;5037603;28;20087;-86
2021/05/30 00:07:36;;;;;;;1.73;1.20;;;14.40;63.60;;;;;;5037908;28;20033;-87
2021/05/30 00:10:03;;;;;;;2.80;1.40;;;14.40;64.20;;;;;;5036718;28;20893;-87
2021/05/30 00:12:29;;;;;;;2.65;1.05;;;14.30;64.10;;;;;;5037144;28;20021;-87
2021/05/30 00:14:54;;;;;;;2.70;1.27;;;14.30;64.30;;;;;;5054122;28;20363;-87
2021/05/30 00:17:20;;;;;;;1.25;1.08;;;14.20;64.40;;;;;;5037198;28;20382;-87
2021/05/30 00:19:46;;;;;;;3.17;1.13;;;14.20;64.60;;;;;;5053927;28;20109;-84
2021/05/30 00:22:12;;;;;;;1.33;1.20;;;14.20;64.60;;;;;;5054251;28;20061;-84
2021/05/30 00:24:38;;;;;;;1.50;1.20;;;14.20;64.60;;;;;;5037097;28;20452;-83
2021/05/30 00:27:04;;;;;;;1.75;1.17;;;14.20;64.70;;;;;;5054116;28;20056;-84
2021/05/30 00:29:30;;;;;;;1.52;1.20;;;14.20;64.80;;;;;;5037124;28;20051;-82
2021/05/30 00:31:56;;;;;;;2.15;1.40;;;14.10;65.30;;;;;;5036205;28;20088;-83
2021/05/30 00:34:22;;;;;;;1.30;1.20;;;14.20;65.00;;;;;;5054569;28;20043;-84
2021/05/30 00:36:48;;;;;;;1.88;1.10;;;14.20;65.70;;;;;;5036457;28;20112;-84
2021/05/30 00:39:14;;;;;;;2.58;1.20;;;14.20;65.30;;;;;;5037009;28;20071;-84
2021/05/30 00:41:39;;;;;;;2.20;1.40;;;14.20;65.60;;;;;;5054608;28;20032;-88
2021/05/30 00:44:26;;;;;;;4.13;1.30;;;14.20;64.40;;;;;;5036694;28;20029;-87
2021/05/30 00:46:57;;;;;;;2.33;1.17;;;14.10;64.70;;;;;;5036238;28;20167;-87
2021/05/30 00:49:23;;;;;;;2.10;1.20;;;14.00;65.00;;;;;;5054448;28;20059;-88
2021/05/30 00:51:50;;;;;;;1.60;1.20;;;14.10;64.70;;;;;;5036177;28;20021;-87
2021/05/30 00:54:17;;;;;;;3.60;1.20;;;14.20;64.70;;;;;;5036210;28;20033;-87
2021/05/30 00:56:43;;;;;;;1.90;1.17;;;14.20;64.90;;;;;;5053829;28;20021;-80
2021/05/30 00:59:09;;;;;;;2.38;1.20;;;14.20;64.50;;;;;;5036858;28;20024;-88
2021/05/30 01:01:35;;;;;;;1.35;1.23;;;14.20;64.60;;;;;;5036727;28;20035;-88
2021/05/30 01:04:01;;;;;;;1.80;1.10;;;14.10;64.70;;;;;;5053925;28;20107;-88
2021/05/30 01:06:28;;;;;;;2.35;1.10;;;14.10;64.80;;;;;;5054067;28;20063;-88
2021/05/30 01:08:54;;;;;;;2.42;1.15;;;14.00;64.40;;;;;;5036085;28;20051;-88
2021/05/30 01:11:22;;;;;;;1.98;1.27;;;14.00;64.70;;;;;;5036187;28;20024;-88
2021/05/30 01:13:52;;;;;;;1.55;1.20;;;14.00;64.50;;;;;;5035584;28;20075;-87
2021/05/30 01:16:18;;;;;;;2.28;1.20;;;14.00;64.90;;;;;;5035943;28;20036;-88
2021/05/30 01:18:47;;;;;;;5.07;1.83;;;14.00;64.60;;;;;;5053074;28;20025;-80
2021/05/30 01:21:13;;;;;;;2.10;1.10;;;14.00;64.90;;;;;;5053404;28;20159;-81
2021/05/30 01:23:38;;;;;;;3.20;1.30;;;13.90;65.50;;;;;;5053246;28;20535;-81
2021/05/30 01:26:04;;;;;;;2.97;1.08;;;13.90;65.30;;;;;;5035291;28;20025;-81
2021/05/30 01:28:30;;;;;;;2.08;1.13;;;13.90;65.50;;;;;;5036005;28;20025;-81
2021/05/30 01:30:56;;;;;;;1.85;1.10;;;13.80;65.00;;;;;;5035494;28;20079;-81
2021/05/30 01:33:22;;;;;;;3.30;1.05;;;13.90;65.90;;;;;;5035641;28;20459;-81
2021/05/30 01:35:48;;;;;;;1.70;1.13;;;13.90;65.60;;;;;;5034956;28;20052;-81
2021/05/30 01:38:13;;;;;;;1.70;1.17;;;13.90;65.50;;;;;;5053121;28;20065;-83
2021/05/30 01:40:40;;;;;;;1.55;1.02;;;13.80;65.70;;;;;;5035365;28;20508;-82
2021/05/30 01:43:06;;;;;;;1.30;1.10;;;13.80;65.80;;;;;;5035080;28;20051;-83
2021/05/30 01:45:33;;;;;;;1.63;1.10;;;13.80;65.80;;;;;;5035913;28;20029;-83
2021/05/30 01:48:00;;;;;;;2.47;1.30;;;13.70;66.20;;;;;;5052824;28;20053;-83
2021/05/30 01:50:28;;;;;;;1.98;1.33;;;13.70;66.00;;;;;;5035286;28;20033;-83
2021/05/30 01:52:54;;;;;;;2.25;1.15;;;13.70;66.30;;;;;;5034893;28;20061;-83
2021/05/30 01:58:16;;;;;;;1.88;1.48;;;13.60;65.60;;;;;;4999407;28;20113;-84
2021/05/30 02:00:45;;;;;;;2.40;1.45;;;13.60;66.20;;;;;;5035994;28;20116;-83
2021/05/30 02:03:12;;;;;;;2.78;1.42;;;13.50;66.10;;;;;;5053729;28;20079;-84
2021/05/30 02:05:41;;;;;;;2.67;1.23;;;13.50;65.80;;;;;;5035712;28;20062;-84
2021/05/30 02:08:08;;;;;;;1.92;1.05;;;13.50;66.10;;;;;;5035098;28;20120;-84
2021/05/30 02:10:34;;;;;;;2.05;1.33;;;13.50;66.30;;;;;;5035387;28;20166;-83
2021/05/30 02:13:03;;;;;;;3.28;1.15;;;13.40;66.30;;;;;;5034924;28;20059;-84
2021/05/30 02:15:28;;;;;;;6.60;1.40;;;13.40;66.50;;;;;;5053398;28;20037;-84
2021/05/30 02:17:54;;;;;;;1.52;1.17;;;13.40;66.60;;;;;;5052914;28;20057;-85
2021/05/30 02:20:38;;;;;;;1.65;1.08;;;13.30;66.70;;;;;;5053297;28;20025;-85
2021/05/30 02:23:05;;;;;;;2.38;0.95;;;13.40;67.00;;;;;;5055500;28;20080;-85
2021/05/30 02:25:31;;;;;;;2.00;1.20;;;13.40;67.00;;;;;;5039297;28;20029;-85
2021/05/30 02:27:57;;;;;;;1.65;1.00;;;13.30;66.90;;;;;;5056527;28;20031;-85
2021/05/30 02:30:23;;;;;;;1.40;1.10;;;13.30;67.20;;;;;;5039200;28;20433;-85
2021/05/30 02:32:49;;;;;;;1.45;1.15;;;13.30;67.30;;;;;;5038502;28;20067;-85
2021/05/30 02:35:15;;;;;;;1.48;1.10;;;13.30;67.30;;;;;;5056944;28;20037;-85
2021/05/30 02:37:41;;;;;;;1.60;1.20;;;13.20;67.60;;;;;;5039226;28;20429;-83
2021/05/30 02:40:08;;;;;;;1.98;1.30;;;13.20;68.00;;;;;;5038175;28;20029;-84
2021/05/30 02:42:34;;;;;;;1.77;1.10;;;13.20;68.00;;;;;;5038533;28;20064;-84
2021/05/30 02:45:01;;;;;;;2.40;1.38;;;13.10;68.00;;;;;;5038104;28;20458;-84
2021/05/30 02:47:26;;;;;;;1.90;1.25;;;13.10;68.20;;;;;;5035837;28;20025;-83
2021/05/30 02:49:52;;;;;;;2.70;1.02;;;13.00;68.30;;;;;;5035219;28;20033;-83
2021/05/30 02:52:18;;;;;;;2.10;1.17;;;12.90;68.90;;;;;;5035377;28;20025;-82
2021/05/30 02:54:43;;;;;;;1.90;1.20;;;12.90;68.90;;;;;;5035640;28;20041;-81
2021/05/30 02:57:09;;;;;;;1.92;1.48;;;12.90;68.70;;;;;;5018886;28;20093;-83
2021/05/30 02:59:35;;;;;;;2.15;1.77;;;12.90;68.90;;;;;;5036466;28;20446;-84
2021/05/30 03:02:00;;;;;;;1.30;1.13;;;12.90;69.30;;;;;;5017892;28;20052;-84
2021/05/30 03:04:26;;;;;;;4.70;1.33;;;12.90;68.90;;;;;;5035096;28;20104;-84
2021/05/30 03:06:52;;;;;;;1.80;1.17;;;12.80;68.70;;;;;;5035358;28;20455;-84
2021/05/30 03:09:17;;;;;;;1.63;1.38;;;12.80;68.60;;;;;;5034694;28;20030;-83
2021/05/30 03:11:43;;;;;;;2.72;1.35;;;12.80;68.80;;;;;;5035016;28;20061;-79
2021/05/30 03:14:09;;;;;;;1.95;1.38;;;12.90;69.00;;;;;;5035753;28;20032;-83
2021/05/30 03:16:35;;;;;;;3.17;1.25;;;12.80;69.00;;;;;;5035207;28;20044;-83
2021/05/30 03:19:00;;;;;;;2.45;1.38;;;12.80;69.60;;;;;;5034756;28;20072;-84
2021/05/30 03:21:26;;;;;;;3.25;1.25;;;12.80;69.60;;;;;;5036354;28;20030;-84
2021/05/30 03:23:51;;;;;;;2.58;1.35;;;12.70;70.00;;;;;;5049295;28;20057;-83
2021/05/30 03:26:17;;;;;;;2.53;1.25;;;12.60;70.30;;;;;;5054710;28;20060;-83
2021/05/30 03:28:43;;;;;;;2.40;1.52;;;12.60;70.60;;;;;;5055135;28;20426;-84
2021/05/30 03:31:08;;;;;;;1.83;1.20;;;12.50;71.70;;;;;;5054565;28;20055;-83
2021/05/30 03:33:34;;;;;;;3.25;1.50;;;12.50;70.80;;;;;;5052785;28;20389;-87
2021/05/30 03:36:03;;;;;;;3.53;1.45;;;12.60;70.30;;;;;;5053889;28;20037;-87
2021/05/30 03:38:31;;;;;;;1.73;1.27;;;12.60;70.30;;;;;;5055447;28;20024;-85
2021/05/30 03:41:05;;;;;;;1.50;1.20;;;12.60;70.50;;;;;;5055552;28;20112;-86
2021/05/30 03:43:31;;;;;;;2.65;1.40;;;12.50;70.60;;;;;;5038274;28;20108;-87
2021/05/30 03:45:57;;;;;;;2.03;1.48;;;12.60;70.30;;;;;;5037505;28;20044;-86
2021/05/30 03:48:23;;;;;;;1.70;1.20;;;12.60;70.20;;;;;;5055700;28;20025;-87
2021/05/30 03:50:51;;;;;;;2.08;1.40;;;12.60;70.30;;;;;;5054922;28;20043;-85
2021/05/30 03:53:17;;;;;;;1.85;1.17;;;12.60;70.10;;;;;;5037084;28;20108;-82
2021/05/30 03:55:44;;;;;;;2.05;1.40;;;12.60;70.30;;;;;;5054712;28;20120;-79
2021/05/30 03:58:10;;;;;;;1.95;1.15;;;12.60;70.30;;;;;;5055068;28;20100;-83
2021/05/30 04:00:35;;;;;;;2.10;1.25;;;12.60;70.00;;;;;;5056685;28;20090;-82
2021/05/30 04:03:01;;;;;;;1.33;1.10;;;12.60;70.30;;;;;;5056935;28;20025;-82
2021/05/30 04:05:27;;;;;;;2.63;1.70;;;12.60;70.50;;;;;;5057446;28;20028;-82
2021/05/30 04:07:52;;;;;;;3.00;1.70;;;12.60;70.90;;;;;;5056351;28;20045;-82
2021/05/30 04:10:18;;;;;;;2.53;1.65;;;12.60;71.00;;;;;;5057059;28;20031;-82
2021/05/30 04:12:43;;;;;;;2.92;1.65;;;12.50;71.10;;;;;;5056312;28;20045;-79
2021/05/30 04:15:12;;;;;;;2.85;1.63;;;12.50;71.30;;;;;;5053536;28;20033;-81
2021/05/30 04:17:43;;;;;;;2.10;1.50;;;12.50;71.80;;;;;;5053465;28;20097;-81
2021/05/30 04:20:12;;;;;;;2.33;1.63;;;12.40;71.90;;;;;;5054077;28;20021;-81
2021/05/30 04:22:39;;;;;;;1.48;1.23;;;12.40;71.90;;;;;;5054464;28;20055;-82
2021/05/30 04:25:06;;;;;;;3.25;1.70;;;12.40;71.30;;;;;;5053200;28;20071;-81
2021/05/30 04:27:32;;;;;;;4.32;1.90;;;12.40;71.30;;;;;;5054405;28;20021;-82
2021/05/30 04:29:59;;;;;;;2.83;1.70;;;12.40;71.40;;;;;;5052665;28;20120;-81
2021/05/30 04:32:25;;;;;;;1.83;1.33;;;12.40;71.90;;;;;;5053517;28;20029;-81
2021/05/30 04:34:50;;;;;;;4.07;2.05;;;12.40;71.30;;;;;;5053396;28;20116;-81
2021/05/30 04:37:16;;;;;;;2.45;1.42;;;12.40;71.10;;;;;;5052912;28;20057;-81
2021/05/30 04:39:42;;;;;;;3.08;1.70;;;12.40;71.10;;;;;;5054582;28;20482;-81
2021/05/30 04:42:08;;;;;;;3.35;1.50;;;12.40;71.40;;;;;;5052624;28;20041;-81
2021/05/30 04:44:34;;;;;;;1.80;1.55;;;12.50;71.90;;;;;;5053403;28;20033;-84
2021/05/30 04:47:00;;;;;;;2.85;1.80;;;12.40;72.00;;;;;;5053899;28;20024;-84
2021/05/30 04:49:25;;;;;;;2.95;1.40;;;12.40;71.50;;;;;;5053558;28;20363;-83
2021/05/30 04:51:52;;;;;;;3.30;1.52;;;12.50;71.90;;;;;;5053674;28;20033;-83
2021/05/30 04:54:18;;;;;;;2.17;1.70;;;12.40;71.50;;;;;;5053665;28;20044;-84
2021/05/30 04:56:43;;;;;;;2.75;1.55;;;12.50;71.60;;;;;;5052372;28;20036;-79
2021/05/30 04:59:09;;;;;;;2.67;1.50;;;12.50;71.50;;;;;;5053832;28;20025;-84
2021/05/30 05:01:35;;;;;;;2.22;1.88;;;12.50;71.70;;;;;;5052796;28;20025;-85
2021/05/30 05:04:00;;;;;;;5.22;2.00;;;12.50;72.30;;;;;;5052657;28;20029;-85
2021/05/30 05:06:26;;;;;;;4.57;2.08;;;12.50;71.80;;;;;;5053352;28;20060;-84
2021/05/30 05:08:53;;;;;;;3.00;1.88;;;12.60;72.40;;;;;;5052957;28;20078;-85
2021/05/30 05:11:19;;;;;;;2.08;1.42;;;12.50;72.10;;;;;;5053145;28;20541;-85
2021/05/30 05:13:45;;;;;;;3.20;1.85;;;12.60;73.00;;;;;;5052005;28;20048;-84
2021/05/30 05:16:11;;;;;;;3.53;1.60;;;12.60;72.50;;;;;;5053551;28;20029;-84
2021/05/30 05:18:36;;;;;;;2.63;1.80;;;12.60;72.50;;;;;;5052230;28;20029;-84
2021/05/30 05:21:03;;;;;;;3.00;1.88;;;12.70;72.40;;;;;;5051514;28;20071;-84
2021/05/30 05:23:29;;;;;;;2.47;1.90;;;12.70;72.40;;;;;;5052208;28;20053;-84
2021/05/30 05:25:57;;;;;;;3.47;1.83;;;12.70;72.10;;;;;;5052142;28;20480;-84
2021/05/30 05:28:24;;;;;;;2.90;1.80;;;12.80;72.00;;;;;;5052769;28;20032;-88
2021/05/30 05:30:51;;;;;;;3.70;2.17;;;12.80;72.60;;;;;;5053372;28;20028;-88
2021/05/30 05:33:17;;;;;;;3.42;1.90;;;12.90;72.20;;;;;;5052197;28;20059;-88
2021/05/30 05:35:42;;;;;;;3.13;1.77;;;12.90;71.30;;;;;;5052226;28;20064;-84
2021/05/30 05:38:09;;;;;;;2.80;1.70;;;12.90;71.20;;;;;;5052905;28;20021;-84
2021/05/30 05:40:35;;;;;;;3.90;1.60;;;13.00;71.50;;;;;;5052033;28;20035;-85
2021/05/30 05:43:00;;;;;;;5.18;2.20;;;13.10;71.50;;;;;;5051463;28;20108;-84
2021/05/30 05:45:26;;;;;;;3.05;1.75;;;13.10;71.80;;;;;;5053341;28;20033;-85
2021/05/30 05:47:52;;;;;;;3.50;2.10;;;13.10;72.30;;;;;;5051821;28;20024;-85
2021/05/30 05:50:20;;;;;;;2.50;1.77;;;13.20;71.90;;;;;;5052926;28;20025;-86
2021/05/30 05:52:47;;;;;;;2.65;1.48;;;13.10;71.70;;;;;;5052859;28;20033;-84
2021/05/30 05:55:14;;;;;;;2.65;1.67;;;13.20;71.90;;;;;;5052529;28;20033;-86
2021/05/30 05:57:41;;;;;;;3.67;2.20;;;13.20;72.60;;;;;;5055147;28;20416;-85
2021/05/30 06:00:13;;;;;;;3.13;2.00;;;13.30;72.60;;;;;;5055918;28;20025;-85
2021/05/30 06:02:39;;;;;;;3.03;2.10;;;13.30;72.00;;;;;;5056074;28;20021;-84
2021/05/30 06:05:06;;;;;;;3.55;2.22;;;13.40;71.70;;;;;;5055516;28;20045;-84
2021/05/30 06:07:32;;;;;;;3.95;2.30;;;13.40;71.70;;;;;;5056307;28;20025;-85
2021/05/30 06:09:58;;;;;;;3.30;2.10;;;13.50;71.80;;;;;;5056079;28;20025;-85
2021/05/30 06:12:23;;;;;;;3.33;2.10;;;13.50;72.10;;;;;;5057573;28;20532;-85
2021/05/30 06:14:49;;;;;;;3.55;2.30;;;13.50;72.00;;;;;;5055569;28;20055;-85
2021/05/30 06:17:14;;;;;;;3.50;2.35;;;13.60;71.30;;;;;;5057151;28;20084;-85
2021/05/30 06:19:40;;;;;;;3.67;2.30;;;13.60;71.20;;;;;;5055926;28;20031;-85
2021/05/30 06:22:07;;;;;;;3.17;2.25;;;13.70;70.90;;;;;;5054901;28;20021;-85
2021/05/30 06:24:34;;;;;;;3.00;1.83;;;13.70;70.80;;;;;;5056816;28;20459;-86
2021/05/30 06:27:00;;;;;;;3.47;2.15;;;13.70;70.60;;;;;;5054804;28;20025;-83
2021/05/30 06:29:26;;;;;;;3.30;1.98;;;13.80;71.20;;;;;;5055713;28;20037;-83
2021/05/30 06:31:52;;;;;;;3.90;2.10;;;13.80;71.00;;;;;;5054923;28;20029;-85
2021/05/30 06:34:18;;;;;;;3.00;2.05;;;13.80;71.20;;;;;;5055786;28;20025;-85
2021/05/30 06:36:44;;;;;;;2.33;1.73;;;13.90;71.10;;;;;;5057116;28;20028;-84
2021/05/30 06:39:10;;;;;;;2.80;2.10;;;13.90;71.10;;;;;;5056200;28;20082;-85
2021/05/30 06:41:37;;;;;;;3.47;2.08;;;14.00;71.10;;;;;;5056649;28;20159;-84
2021/05/30 06:44:04;;;;;;;2.65;1.80;;;13.90;71.20;;;;;;5056341;28;20021;-84
2021/05/30 06:46:30;;;;;;;3.50;1.80;;;14.00;71.10;;;;;;5054795;28;20370;-84
2021/05/30 06:48:56;;;;;;;3.08;1.50;;;14.10;70.90;;;;;;5055708;28;20035;-82
2021/05/30 06:51:26;;;;;;;2.53;1.52;;;14.10;70.00;;;;;;5056112;28;20050;-81
2021/05/30 06:53:52;;;;;;;3.15;2.00;;;14.20;70.00;;;;;;5053896;28;20033;-80
2021/05/30 06:56:18;;;;;;;2.78;1.80;;;14.10;70.20;;;;;;5055774;28;20029;-82
2021/05/30 06:58:44;;;;;;;2.85;1.70;;;14.10;70.30;;;;;;5055650;28;20144;-82
2021/05/30 07:01:11;;;;;;;3.80;1.92;;;14.10;70.00;;;;;;5055418;28;20021;-82
2021/05/30 07:03:37;;;;;;;2.88;1.90;;;14.20;69.90;;;;;;5055298;28;20065;-81
2021/05/30 07:06:04;;;;;;;3.58;2.42;;;14.30;69.70;;;;;;5054287;28;20119;-82
2021/05/30 07:08:29;;;;;;;5.28;2.50;;;14.40;69.60;;;;;;5055403;28;20099;-82
2021/05/30 07:10:55;;;;;;;4.85;2.20;;;14.50;68.50;;;;;;5055541;28;20470;-82
2021/05/30 07:13:21;;;;;;;3.42;2.08;;;14.50;67.00;;;;;;5055702;28;20028;-82
2021/05/30 07:15:48;;;;;;;3.45;1.98;;;14.60;67.60;;;;;;5054399;28;20094;-83
2021/05/30 07:18:14;;;;;;;2.63;1.70;;;14.60;67.70;;;;;;5056176;28;20024;-84
2021/05/30 07:20:43;;;;;;;6.18;2.20;;;14.60;68.00;;;;;;5055346;28;20504;-81
2021/05/30 07:23:09;;;;;;;3.22;2.08;;;14.60;67.70;;;;;;5055254;28;20470;-82
2021/05/30 07:25:35;;;;;;;2.90;1.73;;;14.60;67.20;;;;;;5055521;28;20116;-84
2021/05/30 07:28:01;;;;;;;4.00;1.98;;;14.60;67.50;;;;;;5053604;28;20079;-83
2021/05/30 07:30:27;;;;;;;3.60;2.08;;;14.60;67.40;;;;;;5054001;28;20025;-82
2021/05/30 07:32:52;;;;;;;3.90;1.88;;;14.70;67.20;;;;;;5054681;28;20040;-82
2021/05/30 07:35:18;;;;;;;3.47;1.90;;;14.70;67.80;;;;;;5053218;28;20037;-82
2021/05/30 07:37:44;;;;;;;2.95;1.83;;;14.70;67.50;;;;;;5053831;28;20394;-75
2021/05/30 07:40:10;;;;;;;3.00;1.85;;;14.80;66.30;;;;;;5044519;28;20021;-75
2021/05/30 07:42:36;;;;;;;3.53;2.30;;;14.90;66.10;;;;;;5043491;28;20028;-75
2021/05/30 07:45:04;;;;;;;4.70;2.08;;;14.90;65.60;;;;;;5040647;28;20033;-76
2021/05/30 07:47:29;;;;;;;5.28;2.30;;;15.00;64.80;;;;;;5041130;28;20025;-76
2021/05/30 07:49:55;;;;;;;3.53;2.13;;;15.10;64.90;;;;;;5047203;28;20025;-76
2021/05/30 07:52:21;;;;;;;3.45;1.80;;;15.10;64.50;;;;;;5041205;28;20017;-75
2021/05/30 07:54:47;;;;;;;3.20;1.70;;;15.10;65.70;;;;;;5051085;28;20496;-76
2021/05/30 07:57:12;;;;;;;3.38;2.00;;;15.10;64.70;;;;;;5037074;28;20021;-75
2021/05/30 07:59:38;;;;;;;3.85;1.95;;;15.20;65.00;;;;;;5050688;28;20028;-75
2021/05/30 08:02:04;;;;;;;2.65;2.00;;;15.20;64.70;;;;;;5045849;28;20198;-75
2021/05/30 08:04:30;;;;;;;3.55;1.90;;;15.30;63.40;;;;;;5041978;28;20040;-76
2021/05/30 08:06:55;;;;;;;3.80;1.80;;;15.30;62.90;;;;;;5042367;28;20083;-77
2021/05/30 08:09:21;;;;;;;2.90;1.73;;;15.40;64.10;;;;;;5040906;28;20087;-77
2021/05/30 08:11:46;;;;;;;3.22;1.70;;;15.40;63.60;;;;;;5034229;28;20021;-78
2021/05/30 08:14:12;;;;;;;3.80;2.42;;;15.50;62.70;;;;;;5045080;28;20114;-75
2021/05/30 08:16:41;;;;;;;3.83;1.90;;;15.50;63.00;;;;;;5042166;28;20044;-75
2021/05/30 08:19:07;;;;;;;3.70;2.08;;;15.60;63.30;;;;;;5037902;28;20033;-76
2021/05/30 08:21:32;;;;;;;3.10;2.13;;;15.60;62.80;;;;;;5048430;28;20486;-75
2021/05/30 08:23:58;;;;;;;2.63;1.90;;;15.60;64.10;;;;;;5052154;28;20045;-75
2021/05/30 08:26:24;;;;;;;2.92;1.80;;;15.70;64.50;;;;;;5072642;28;20043;-76
2021/05/30 08:28:50;;;;;;;2.25;1.40;;;15.70;63.60;;;;;;5061081;28;20029;-76
2021/05/30 08:31:15;;;;;;;5.50;1.63;;;15.80;62.80;;;;;;5068213;28;20085;-75
2021/05/30 08:33:41;;;;;;;2.15;1.80;;;15.80;63.00;;;;;;5052953;28;20065;-76
2021/05/30 08:36:07;;;;;;;2.92;2.10;;;15.80;61.20;;;;;;5040376;28;20040;-76
2021/05/30 08:38:32;;;;;;;3.72;1.85;;;15.90;62.10;;;;;;5044619;28;20033;-75
2021/05/30 08:40:59;;;;;;;5.43;2.22;;;15.90;61.50;;;;;;5042120;28;20049;-76
2021/05/30 08:43:26;;;;;;;1.92;1.70;;;16.00;60.70;;;;;;5051620;28;20115;-77
2021/05/30 08:45:52;;;;;;;4.15;2.22;;;16.00;61.40;;;;;;5038942;28;20473;-77
2021/05/30 08:48:18;;;;;;;3.33;1.75;;;16.00;61.40;;;;;;5047512;28;20461;-77
2021/05/30 08:50:43;;;;;;;3.80;1.90;;;16.00;61.90;;;;;;5053311;28;20063;-78
2021/05/30 08:53:09;;;;;;;2.13;1.60;;;16.10;61.30;;;;;;5067073;28;20436;-77
2021/05/30 08:55:38;;;;;;;2.42;1.63;;;16.20;62.60;;;;;;5038532;28;20059;-76
2021/05/30 08:58:05;;;;;;;3.65;1.95;;;16.20;62.90;;;;;;5066607;28;20037;-76
2021/05/30 09:00:32;;;;;;;2.90;1.75;;;16.20;61.60;;;;;;5039337;28;20032;-75
2021/05/30 09:03:12;;;;;;;3.50;1.73;;;16.20;60.70;;;;;;5047322;28;20465;-75
2021/05/30 09:05:39;;;;;;;2.38;1.77;;;16.30;61.10;;;;;;5056086;28;20028;-75
2021/05/30 09:08:05;;;;;;;2.90;1.80;;;16.30;61.90;;;;;;5066558;28;20032;-75
2021/05/30 09:10:31;;;;;;;2.95;1.90;;;16.40;58.90;;;;;;5061464;28;20085;-75
2021/05/30 09:13:23;;;;;;;3.03;1.90;;;16.50;59.00;;;;;;5053715;28;20098;-76
2021/05/30 09:15:52;;;;;;;;;;;16.50;58.80;;;;;;5034508;28;20045;-76
2021/05/30 09:18:22;;;;;;;2.67;1.90;;;16.50;57.70;;;;;;5065488;28;19904;-75
2021/05/30 09:20:55;;;;;;;2.85;1.60;;;16.60;59.30;;;;;;5062735;28;20024;-75
2021/05/30 09:23:41;;;;;;;2.28;1.60;;;16.70;57.80;;;;;;5055360;28;20048;-76
2021/05/30 09:26:18;;;;;;;2.80;1.48;;;16.80;57.10;;;;;;5060971;28;20492;-75
2021/05/30 09:29:02;;;;;;;2.85;1.40;;;16.80;54.40;;;;;;5061088;28;20032;-77
2021/05/30 09:31:28;;;;;;;3.45;1.70;;;16.90;57.00;;;;;;5049960;28;20021;-76
2021/05/30 09:33:54;;;;;;;4.05;1.60;;;16.90;57.20;;;;;;5055733;28;20021;-76
2021/05/30 09:36:23;;;;;;;4.15;1.60;;;16.90;57.10;;;;;;5046549;28;20110;-76
2021/05/30 09:39:04;;;;;;;1.85;1.30;;;16.90;56.60;;;;;;5045520;28;20028;-76
2021/05/30 09:41:30;;;;;;;1.75;1.30;;;16.90;54.00;;;;;;5053389;28;20380;-82
2021/05/30 09:43:56;;;;;;;1.95;1.60;;;17.00;54.90;;;;;;5062296;28;20112;-76
2021/05/30 09:46:32;;;;;;;1.85;1.35;;;17.00;55.60;;;;;;5041895;28;20115;-76
2021/05/30 09:48:59;;;;;;;3.13;1.50;;;17.10;55.20;;;;;;5058557;28;20037;-78
2021/05/30 09:51:39;;;;;;;2.97;1.30;;;17.10;55.40;;;;;;5068296;28;20032;-77
2021/05/30 09:54:16;;;;;;;2.30;1.48;;;17.20;52.50;;;;;;5057104;28;20466;-76
2021/05/30 09:56:52;;;;;;;16.55;7.95;;;17.30;54.70;;;;;;5043921;28;20037;-79
2021/05/30 09:59:24;;;;;;;40.70;18.40;;;17.40;53.00;;;;;;5068647;28;20017;-77
2021/05/30 10:01:57;;;;;;;6.45;2.97;;;17.50;53.00;;;;;;5050114;28;20021;-75
2021/05/30 10:04:30;;;;;;;4.32;2.10;;;17.50;51.60;;;;;;5042330;28;20024;-75
2021/05/30 10:07:00;;;;;;;2.75;1.52;;;17.60;51.50;;;;;;5040997;28;20028;-75
2021/05/30 10:09:28;;;;;;;4.93;2.00;;;17.50;51.00;;;;;;5054491;28;20041;-76
2021/05/30 10:11:56;;;;;;;1.45;1.30;;;17.60;52.60;;;;;;5070984;28;20096;-76
2021/05/30 10:14:22;;;;;;;2.47;1.40;;;17.60;50.10;;;;;;5045632;28;20025;-76
2021/05/30 10:16:48;;;;;;;2.75;1.48;;;17.70;50.80;;;;;;5044821;28;20142;-76
2021/05/30 10:19:27;;;;;;;1.55;1.10;;;17.80;50.40;;;;;;5056910;28;20044;-76
2021/05/30 10:21:58;;;;;;;1.63;1.23;;;18.00;50.80;;;;;;5064729;28;20021;-76
2021/05/30 10:24:31;;;;;;;2.03;1.30;;;18.00;49.80;;;;;;5030296;28;20107;-75
2021/05/30 10:27:14;;;;;;;1.80;1.35;;;18.10;51.20;;;;;;5031317;28;20026;-75
2021/05/30 10:29:40;;;;;;;1.52;1.13;;;18.20;49.50;;;;;;5013951;28;20030;-75
2021/05/30 10:32:17;;;;;;;2.03;1.23;;;18.40;48.60;;;;;;5030745;28;20045;-75
2021/05/30 10:35:08;;;;;;;4.30;1.50;;;18.50;49.40;;;;;;5031392;28;20028;-75
2021/05/30 10:37:40;;;;;;;3.17;1.00;;;18.50;46.90;;;;;;5031284;28;20028;-76
2021/05/30 10:40:21;;;;;;;1.83;1.13;;;18.50;46.00;;;;;;5031065;28;20493;-76
2021/05/30 10:43:12;;;;;;;2.03;1.10;;;18.50;45.50;;;;;;5014352;28;20037;-76
2021/05/30 10:45:44;;;;;;;1.88;1.10;;;18.40;43.60;;;;;;5016087;28;20065;-77
2021/05/30 10:48:10;;;;;;;1.77;1.00;;;18.40;46.00;;;;;;5030858;28;20026;-76
2021/05/30 10:50:37;;;;;;;1.77;1.10;;;18.40;46.00;;;;;;5017392;28;20363;-76
2021/05/30 10:53:04;;;;;;;2.47;1.40;;;18.50;46.60;;;;;;5015865;28;20030;-76
2021/05/30 10:55:31;;;;;;;2.13;1.20;;;18.50;48.70;;;;;;5001386;28;20045;-76
2021/05/30 10:58:11;;;;;;;2.38;0.93;;;18.70;49.10;;;;;;5017119;28;20026;-76
2021/05/30 11:00:37;;;;;;;2.25;1.48;;;18.70;45.90;;;;;;5007087;28;20031;-75
2021/05/30 11:05:42;;;;;;;3.47;1.33;;;18.80;47.30;;;;;;5034850;28;20053;-76
2021/05/30 11:08:07;;;;;;;1.08;0.90;;;19.00;47.50;;;;;;5033742;28;20494;-76
2021/05/30 11:10:34;;;;;;;1.52;1.08;;;19.10;47.90;;;;;;5034484;28;20030;-76
2021/05/30 11:13:02;;;;;;;2.17;1.00;;;19.20;48.60;;;;;;5010066;28;20056;-76
2021/05/30 11:15:29;;;;;;;1.55;1.38;;;19.20;47.90;;;;;;5034374;28;20037;-76
2021/05/30 11:17:57;;;;;;;1.90;1.33;;;19.40;46.70;;;;;;5016211;28;20033;-76
2021/05/30 11:20:34;;;;;;;1.85;1.20;;;19.40;47.00;;;;;;5016743;28;20063;-76
2021/05/30 11:23:02;;;;;;;2.17;1.20;;;19.40;47.10;;;;;;5033716;28;20168;-76
2021/05/30 11:25:45;;;;;;;1.48;1.00;;;19.50;45.80;;;;;;5030950;28;20037;-76
2021/05/30 11:28:17;;;;;;;2.65;1.10;;;19.30;45.30;;;;;;5004508;28;20379;-77
2021/05/30 11:30:50;;;;;;;1.45;1.25;;;19.30;45.20;;;;;;5023615;28;20022;-78
2021/05/30 11:33:27;;;;;;;2.05;1.20;;;19.30;45.00;;;;;;5021917;28;20030;-77
2021/05/30 11:36:01;;;;;;;2.38;1.40;;;19.30;47.80;;;;;;5018715;28;20032;-77
2021/05/30 11:38:47;;;;;;;2.50;1.15;;;19.40;47.30;;;;;;5034864;28;20156;-77
2021/05/30 11:41:31;;;;;;;2.35;0.98;;;19.50;45.50;;;;;;5006554;28;20033;-76
2021/05/30 11:44:03;;;;;;;1.50;1.23;;;19.50;45.40;;;;;;5001223;28;20026;-77
2021/05/30 11:46:32;;;;;;;1.63;0.88;;;19.50;47.10;;;;;;5007410;28;20038;-77
2021/05/30 11:49:03;;;;;;;1.52;0.98;;;19.50;46.00;;;;;;5026825;28;20079;-78
2021/05/30 11:51:48;;;;;;;1.85;1.20;;;19.50;44.40;;;;;;5017898;28;20061;-77
2021/05/30 11:54:15;;;;;;;2.10;1.30;;;19.60;47.40;;;;;;5012862;28;20025;-77
2021/05/30 11:56:42;;;;;;;10.93;5.10;;;19.50;44.20;;;;;;5016502;28;20037;-79
2021/05/30 11:59:09;;;;;;;86.72;40.50;;;19.50;44.30;;;;;;5015150;28;20072;-81
2021/05/30 12:01:49;;;;;;;5.85;3.15;;;19.50;47.50;;;;;;5010698;28;20034;-76
2021/05/30 12:04:36;;;;;;;4.07;2.08;;;19.60;45.00;;;;;;5024644;28;20351;-75
2021/05/30 12:07:03;;;;;;;1.70;1.25;;;19.70;43.10;;;;;;5008373;28;20121;-76
2021/05/30 12:09:47;;;;;;;2.33;1.40;;;19.70;42.90;;;;;;5016757;28;20018;-75
2021/05/30 12:12:35;;;;;;;2.10;1.10;;;19.70;42.10;;;;;;5014942;28;20457;-76
2021/05/30 12:15:18;;;;;;;1.33;1.20;;;19.70;41.40;;;;;;5018743;28;20036;-75
2021/05/30 12:17:54;;;;;;;1.83;1.33;;;19.80;41.60;;;;;;5008123;28;20139;-76
2021/05/30 12:20:25;;;;;;;1.77;1.33;;;20.00;43.70;;;;;;5015163;28;20027;-76
2021/05/30 12:22:51;;;;;;;1.65;0.90;;;20.20;41.60;;;;;;5038148;28;20132;-76
2021/05/30 12:25:18;;;;;;;2.45;1.00;;;20.40;43.10;;;;;;5032218;28;20080;-76
2021/05/30 12:27:44;;;;;;;2.15;1.00;;;20.50;43.60;;;;;;5031511;28;20982;-76
2021/05/30 12:30:15;;;;;;;3.55;1.00;;;20.60;43.00;;;;;;5051637;28;20017;-76
2021/05/30 12:32:51;;;;;;;1.83;1.00;;;20.60;42.20;;;;;;5032731;28;20053;-76
2021/05/30 12:35:46;;;;;;;1.75;1.00;;;20.70;42.00;;;;;;5031644;28;20036;-76
2021/05/30 12:38:13;;;;;;;1.30;1.20;;;20.80;41.90;;;;;;5033658;28;20541;-77
2021/05/30 12:40:39;;;;;;;2.83;1.00;;;20.90;42.50;;;;;;5029915;28;20021;-78
2021/05/30 12:43:05;;;;;;;1.35;1.05;;;21.10;42.90;;;;;;5025361;28;20569;-78
2021/05/30 12:45:31;;;;;;;2.22;1.10;;;21.20;40.50;;;;;;5032523;28;20116;-78
2021/05/30 12:47:57;;;;;;;1.27;1.00;;;21.40;40.20;;;;;;5036644;28;20013;-78
2021/05/30 12:50:23;;;;;;;1.33;1.08;;;21.50;41.40;;;;;;5044992;28;20083;-78
2021/05/30 12:52:54;;;;;;;3.00;1.13;;;21.60;41.00;;;;;;5034072;28;20029;-78
2021/05/30 12:55:34;;;;;;;1.65;1.13;;;21.70;39.10;;;;;;5022255;28;20037;-77
2021/05/30 12:58:00;;;;;;;2.83;1.23;;;21.90;39.50;;;;;;5019677;28;20079;-78